LOWI Airport Information

Runway Information
Runway 08 Length 6562 ft width 148 ft
Elevation 1907 ft Threshold 339 ft Heading 81
Runway 26 Length 6562 ft Width 148 ft
Elevation 1894 ft Threshold ft Heading 261
Airport Frequencies
Type APP Name APP Frequency 119.275 MHZ
Type ATIS Name ATIS Frequency 126.025 MHZ
Type GND Crew Name Frequency 121.8 MHZ
Type GND Crew Name Frequency 121.9 MHZ
Type TWR Name TWR Frequency 120.1 MHZ
Airport Navaids
Type NDB Name Innsbruck Frequency 420 KHZ
Type NDB Name Kuhtai Frequency 413 KHZ
Airport Weather Information & NOTAM
ADDS - METARS form results

(1156 UTC 15 August 2022)
Data provider http://aviationweather.gov/metar/data/
 
METAR text: LOWI 151150Z 05003KT 350V080 9999 FEW035 BKN095 22/15 Q1010 NOSIG
Conditions at: LOWI (INNSBRUCK AIRPOR, AT) observed 1150 UTC 15 August 2022
Temperature: 22.0°C (72°F)
Dewpoint: 15.0°C (59°F) [RH = 65%]
Pressure (altimeter): 29.82 inches Hg (1010.0 mb)
Winds: from the NE (50 degrees) at 3 MPH (3 knots; 1.5 m/s)
Visibility: 6 or more miles (10+ km)
Ceiling: 9500 feet AGL
Clouds: few clouds at 3500 feet AGL
broken clouds at 9500 feet AGL
Weather: no significant weather observed at this time

METAR text: LOWI 151120Z 08005KT 040V110 9999 FEW020 SCT090 21/15 Q1010 NOSIG
Conditions at: LOWI (INNSBRUCK AIRPOR, AT) observed 1120 UTC 15 August 2022
Temperature: 21.0°C (70°F)
Dewpoint: 15.0°C (59°F) [RH = 69%]
Pressure (altimeter): 29.82 inches Hg (1010.0 mb)
Winds: from the E (80 degrees) at 6 MPH (5 knots; 2.6 m/s)
Visibility: 6 or more miles (10+ km)
Ceiling: at least 12,000 feet AGL
Clouds: few clouds at 2000 feet AGL
scattered clouds at 9000 feet AGL
Weather: no significant weather observed at this time

Forecast for: LOWI (INNSBRUCK AIRPOR, AT)
Text: TAF LOWI 151115Z 1512/1612 27005KT 9999 FEW060 BKN100 TX26/1612Z TN14/1604Z
Forecast period: 1200 UTC 15 August 2022 to 1200 UTC 16 August 2022
Forecast type: FROM: standard forecast or significant change
Winds: from the W (270 degrees) at 6 MPH (5 knots; 2.6 m/s)
Visibility: 6 or more miles (10+ km)
Ceiling: 10000 feet AGL
Clouds: few clouds at 6000 feet AGL
broken clouds at 10000 feet AGL
Weather: no significant weather forecast for this period
Text: TEMPO 1513/1521 24015G30KT TSRA SCT050CB BKN060
Forecast period: 1300 to 2100 UTC 15 August 2022
Forecast type: TEMPORARY: The following changes expected for less than half the time period
Winds: from the WSW (240 degrees) at 17 MPH (15 knots; 7.7 m/s)
gusting to 34 MPH (30 knots; 15.4 m/s)
Visibility: missing
Ceiling: 6000 feet AGL
Clouds: scattered clouds at 5000 feet AGL
broken clouds at 6000 feet AGL
Weather: TSRA  (rain associated with thunderstorm(s))